createdAt,value
2022-12-28T00:00:07.182Z,20.50
2022-12-28T00:02:40.663Z,14.38
2022-12-28T00:05:10.251Z,15.73
2022-12-28T00:07:38.597Z,18.05
2022-12-28T00:10:09.426Z,19.17
2022-12-28T00:12:37.756Z,20.42
2022-12-28T00:15:07.431Z,14.07
2022-12-28T00:17:35.773Z,19.27
2022-12-28T00:20:04.260Z,19.40
2022-12-28T00:22:32.526Z,18.17
2022-12-28T00:25:00.844Z,18.60
2022-12-28T00:27:30.572Z,17.13
2022-12-28T00:30:00.704Z,19.80
2022-12-28T00:32:29.887Z,20.10
2022-12-28T00:34:58.308Z,20.85
2022-12-28T00:37:28.081Z,18.95
2022-12-28T00:39:57.336Z,19.77
2022-12-28T00:42:25.731Z,17.75
2022-12-28T00:44:55.420Z,19.17
2022-12-28T00:47:23.799Z,19.27
2022-12-28T00:49:52.138Z,20.17
2022-12-28T00:52:20.693Z,18.40
2022-12-28T00:54:49.112Z,24.40
2022-12-28T00:57:17.423Z,17.48
2022-12-28T00:59:45.719Z,15.10
2022-12-28T01:02:15.486Z,20.75
2022-12-28T01:04:43.921Z,20.63
2022-12-28T01:07:12.609Z,17.98
2022-12-28T01:09:42.021Z,21.13
2022-12-28T01:12:10.297Z,19.40
2022-12-28T01:14:38.566Z,17.65
2022-12-28T01:17:06.881Z,22.98
2022-12-28T01:19:36.641Z,18.27
2022-12-28T01:22:06.167Z,19.55
2022-12-28T01:24:34.542Z,19.13
2022-12-28T01:27:03.129Z,20.60
2022-12-28T01:29:31.707Z,18.80
2022-12-28T01:32:00.062Z,18.55
2022-12-28T01:34:30.993Z,16.05
2022-12-28T01:37:00.615Z,18.95
2022-12-28T01:39:29.286Z,18.75
2022-12-28T01:41:57.887Z,22.70
2022-12-28T01:44:45.969Z,21.17
2022-12-28T01:47:19.735Z,19.63
2022-12-28T01:49:59.599Z,20.85
2022-12-28T01:52:34.846Z,17.13
2022-12-28T01:55:10.193Z,18.20
2022-12-28T01:57:44.630Z,17.70
2022-12-28T02:00:16.176Z,19.60
2022-12-28T02:02:54.661Z,14.85
2022-12-28T02:05:28.291Z,16.80
2022-12-28T02:08:03.928Z,17.67
2022-12-28T02:10:44.578Z,19.85
2022-12-28T02:13:16.205Z,17.98
2022-12-28T02:15:45.819Z,13.27
2022-12-28T02:18:15.777Z,16.77
2022-12-28T02:21:03.824Z,16.15
2022-12-28T02:24:04.883Z,17.48
2022-12-28T02:26:48.639Z,19.70
2022-12-28T02:29:55.309Z,14.02
2022-12-28T02:32:48.447Z,13.63
2022-12-28T02:35:24.318Z,13.63
2022-12-28T02:37:59.039Z,15.23
2022-12-28T02:40:34.014Z,17.42
2022-12-28T02:43:04.428Z,15.90
2022-12-28T02:45:57.516Z,17.58
2022-12-28T02:48:43.871Z,17.38
2022-12-28T02:51:48.695Z,17.63
2022-12-28T02:55:31.196Z,15.13
2022-12-28T02:58:23.824Z,15.98
2022-12-28T03:01:11.168Z,14.50
2022-12-28T03:03:54.160Z,14.18
2022-12-28T03:06:48.479Z,13.77
2022-12-28T03:09:25.451Z,16.27
2022-12-28T03:12:00.201Z,14.27
2022-12-28T03:14:37.298Z,15.68
2022-12-28T03:17:28.787Z,15.00
2022-12-28T03:20:21.884Z,15.57
2022-12-28T03:23:09.153Z,15.80
2022-12-28T03:26:01.451Z,14.35
2022-12-28T03:28:55.093Z,13.02
2022-12-28T03:31:29.054Z,12.82
2022-12-28T03:34:07.618Z,12.93
2022-12-28T03:36:49.356Z,15.80
2022-12-28T03:39:26.577Z,15.07
2022-12-28T03:42:18.240Z,11.75
2022-12-28T03:44:56.043Z,10.95
2022-12-28T03:47:27.775Z,11.63
2022-12-28T03:49:57.741Z,14.00
2022-12-28T03:52:26.721Z,9.87
2022-12-28T03:54:55.091Z,12.93
2022-12-28T03:57:24.514Z,9.15
2022-12-28T03:59:52.955Z,13.63
2022-12-28T04:02:21.434Z,10.52
2022-12-28T04:04:50.152Z,13.82
2022-12-28T04:07:19.838Z,13.45
2022-12-28T04:09:50.042Z,12.30
2022-12-28T04:12:18.431Z,9.38
2022-12-28T04:15:08.440Z,11.02
2022-12-28T04:17:36.917Z,10.18
2022-12-28T04:20:06.956Z,14.57
2022-12-28T04:22:37.082Z,15.00
2022-12-28T04:25:06.372Z,12.88
2022-12-28T04:27:36.450Z,12.27
2022-12-28T04:30:13.182Z,12.27
2022-12-28T04:32:42.328Z,10.63
2022-12-28T04:35:10.845Z,12.85
2022-12-28T04:37:48.885Z,11.35
2022-12-28T04:40:17.220Z,9.82
2022-12-28T04:42:45.706Z,14.43
2022-12-28T04:45:18.397Z,8.90
2022-12-28T04:47:50.197Z,11.38
2022-12-28T04:50:18.747Z,11.63
2022-12-28T04:52:48.417Z,8.50
2022-12-28T04:55:32.469Z,8.38
2022-12-28T04:58:01.973Z,10.57
2022-12-28T05:00:30.329Z,10.20
2022-12-28T05:03:00.779Z,13.07
2022-12-28T05:05:30.615Z,11.40
2022-12-28T05:08:02.485Z,10.45
2022-12-28T05:10:31.450Z,11.57
2022-12-28T05:12:59.795Z,8.15
2022-12-28T05:15:28.099Z,10.00
2022-12-28T05:17:57.198Z,12.90
2022-12-28T05:20:25.559Z,8.25
2022-12-28T05:22:53.861Z,11.48
2022-12-28T05:25:23.624Z,8.10
2022-12-28T05:27:51.939Z,14.40
2022-12-28T05:30:20.259Z,14.07
2022-12-28T05:32:48.583Z,9.13
2022-12-28T05:35:17.127Z,8.90
2022-12-28T05:37:45.414Z,9.88
2022-12-28T05:40:13.873Z,9.02
2022-12-28T05:42:47.997Z,10.57
2022-12-28T05:45:20.048Z,9.45
2022-12-28T05:47:48.517Z,12.02
2022-12-28T05:50:17.198Z,7.55
2022-12-28T05:52:45.693Z,8.32
2022-12-28T05:55:14.071Z,10.07
2022-12-28T05:57:43.766Z,9.25
2022-12-28T06:00:13.457Z,10.68
2022-12-28T06:02:41.986Z,9.83
2022-12-28T06:05:10.845Z,7.80
2022-12-28T06:07:39.233Z,11.73
2022-12-28T06:10:09.255Z,10.93
2022-12-28T06:12:37.586Z,8.70
2022-12-28T06:15:09.014Z,10.10
2022-12-28T06:17:37.402Z,7.72
2022-12-28T06:20:07.095Z,8.93
2022-12-28T06:22:36.154Z,9.05
2022-12-28T06:25:04.795Z,9.93
2022-12-28T06:27:33.027Z,11.07
2022-12-28T06:30:01.302Z,9.52
2022-12-28T06:32:31.072Z,8.05
2022-12-28T06:34:59.342Z,10.83
2022-12-28T06:37:27.593Z,11.35
2022-12-28T06:39:55.915Z,9.30
2022-12-28T06:42:24.178Z,9.20
2022-12-28T06:44:52.456Z,10.88
2022-12-28T06:47:20.727Z,10.70
2022-12-28T06:49:50.377Z,10.55
2022-12-28T06:52:18.739Z,7.20
2022-12-28T06:54:47.036Z,12.13
2022-12-28T06:57:15.273Z,10.93
2022-12-28T06:59:43.558Z,11.18
2022-12-28T07:02:12.042Z,7.82
2022-12-28T07:04:40.417Z,9.13
2022-12-28T07:07:10.924Z,7.95
2022-12-28T07:09:39.222Z,10.90
2022-12-28T07:12:07.994Z,9.77
2022-12-28T07:14:36.353Z,9.70
2022-12-28T07:17:04.685Z,8.90
2022-12-28T07:19:33.004Z,10.10
2022-12-28T07:22:01.287Z,10.77
2022-12-28T07:24:31.099Z,10.02
2022-12-28T07:26:59.403Z,9.90
2022-12-28T07:29:27.703Z,9.55
2022-12-28T07:31:56.064Z,8.13
2022-12-28T07:34:24.480Z,8.00
2022-12-28T07:36:52.804Z,9.80
2022-12-28T07:39:21.116Z,10.18
2022-12-28T07:41:50.777Z,9.70
2022-12-28T07:44:27.911Z,12.25
2022-12-28T07:46:57.791Z,6.50
2022-12-28T07:49:26.050Z,11.95
2022-12-28T07:51:54.337Z,10.30
2022-12-28T07:54:22.767Z,10.32
2022-12-28T07:56:52.405Z,8.27
2022-12-28T07:59:25.961Z,8.98
2022-12-28T08:01:57.756Z,10.52
2022-12-28T08:04:26.253Z,7.03
2022-12-28T08:06:54.549Z,6.97
2022-12-28T08:09:22.908Z,10.80
2022-12-28T08:11:52.658Z,11.35
2022-12-28T08:14:21.149Z,6.77
2022-12-28T08:16:49.458Z,8.10
2022-12-28T08:19:17.747Z,12.32
2022-12-28T08:21:47.058Z,8.95
2022-12-28T08:24:17.573Z,8.60
2022-12-28T08:26:47.456Z,11.35
2022-12-28T08:29:20.461Z,11.32
2022-12-28T08:31:50.215Z,12.98
2022-12-28T08:34:23.078Z,12.93
2022-12-28T08:36:51.436Z,12.13
2022-12-28T08:39:19.929Z,13.38
2022-12-28T08:41:49.893Z,9.68
2022-12-28T08:44:19.709Z,11.82
2022-12-28T08:46:48.133Z,9.80
2022-12-28T08:49:16.730Z,9.32
2022-12-28T08:51:45.278Z,10.13
2022-12-28T08:54:14.876Z,9.07
2022-12-28T08:56:45.808Z,9.18
2022-12-28T08:59:16.896Z,8.60
2022-12-28T09:01:48.211Z,12.65
2022-12-28T09:04:18.823Z,11.00
2022-12-28T09:06:47.616Z,11.93
2022-12-28T09:09:19.285Z,13.48
2022-12-28T09:11:48.443Z,12.30
2022-12-28T09:14:23.184Z,14.75
2022-12-28T09:16:54.556Z,10.15
2022-12-28T09:19:23.205Z,9.75
2022-12-28T09:21:53.152Z,13.75
2022-12-28T09:24:22.131Z,13.40
2022-12-28T09:26:52.579Z,15.95
2022-12-28T09:29:21.269Z,14.32
2022-12-28T09:31:49.679Z,15.35
2022-12-28T09:34:37.275Z,11.80
2022-12-28T09:37:07.059Z,11.00
2022-12-28T09:39:35.876Z,12.85
2022-12-28T09:42:09.473Z,12.82
2022-12-28T09:45:00.549Z,14.95
2022-12-28T09:47:39.598Z,11.63
2022-12-28T09:50:31.063Z,13.05
2022-12-28T09:53:19.741Z,13.77
2022-12-28T09:55:58.874Z,13.85
2022-12-28T09:58:28.777Z,12.07
2022-12-28T10:00:59.932Z,10.77
2022-12-28T10:03:34.705Z,12.10
2022-12-28T10:06:13.309Z,14.25
2022-12-28T10:08:46.856Z,11.38
2022-12-28T10:11:20.351Z,13.25
2022-12-28T10:13:55.930Z,12.48
2022-12-28T10:16:27.850Z,14.85
2022-12-28T10:18:56.646Z,12.48
2022-12-28T10:21:32.881Z,13.00
2022-12-28T10:26:51.181Z,12.18
2022-12-28T10:29:22.463Z,13.43
2022-12-28T10:32:02.370Z,12.63
2022-12-28T10:34:33.928Z,13.95
2022-12-28T10:37:15.965Z,17.48
2022-12-28T10:39:51.593Z,14.13
2022-12-28T10:42:27.597Z,12.02
2022-12-28T10:45:04.263Z,13.85
2022-12-28T10:47:36.508Z,14.98
2022-12-28T10:52:59.768Z,9.73
2022-12-28T10:55:31.580Z,12.73
2022-12-28T10:58:29.124Z,11.20
2022-12-28T11:04:08.401Z,12.18
2022-12-28T11:06:52.519Z,13.18
2022-12-28T11:09:25.378Z,12.30
2022-12-28T11:11:57.052Z,16.88
2022-12-28T11:14:33.457Z,14.55
2022-12-28T11:17:17.666Z,15.25
2022-12-28T11:19:48.299Z,15.50
2022-12-28T11:22:23.352Z,14.05
2022-12-28T11:24:52.074Z,13.18
2022-12-28T11:27:23.893Z,14.25
2022-12-28T11:29:55.519Z,15.18
2022-12-28T11:32:29.647Z,13.88
2022-12-28T11:34:59.803Z,14.82
2022-12-28T11:37:28.396Z,15.35
2022-12-28T11:39:58.575Z,13.63
2022-12-28T11:42:56.078Z,16.42
2022-12-28T11:45:54.029Z,14.45
2022-12-28T11:48:51.165Z,13.75
2022-12-28T11:51:23.477Z,16.48
2022-12-28T11:53:59.068Z,14.63
2022-12-28T11:56:29.879Z,18.50
2022-12-28T11:59:23.195Z,13.63
2022-12-28T12:01:54.259Z,12.85
2022-12-28T12:04:33.565Z,11.88
2022-12-28T12:07:31.251Z,9.45
2022-12-28T12:10:34.050Z,11.55
2022-12-28T12:13:40.927Z,10.32
2022-12-28T12:16:21.809Z,10.77
2022-12-28T12:18:54.540Z,13.15
2022-12-28T12:21:31.612Z,15.82
2022-12-28T12:24:26.697Z,15.57
2022-12-28T12:26:59.698Z,11.98
2022-12-28T12:29:38.279Z,13.77
2022-12-28T12:32:15.712Z,13.32
2022-12-28T12:34:47.714Z,14.38
2022-12-28T12:37:38.222Z,13.15
2022-12-28T12:40:52.804Z,15.40
2022-12-28T12:43:36.045Z,16.00
2022-12-28T12:46:36.121Z,15.45
2022-12-28T12:49:47.175Z,10.98
2022-12-28T12:52:29.457Z,15.40
2022-12-28T12:55:15.149Z,16.23
2022-12-28T12:57:58.020Z,15.15
2022-12-28T13:00:48.497Z,18.48
2022-12-28T13:03:25.386Z,15.50
2022-12-28T13:06:00.540Z,14.27
2022-12-28T13:08:37.759Z,19.85
2022-12-28T13:11:10.652Z,14.82
2022-12-28T13:13:41.332Z,13.68
2022-12-28T13:21:22.078Z,15.05
2022-12-28T13:23:52.083Z,16.13
2022-12-28T13:26:29.046Z,18.00
2022-12-28T13:29:01.731Z,14.05
2022-12-28T13:31:38.609Z,12.13
2022-12-28T13:34:18.388Z,16.80
2022-12-28T13:36:53.747Z,14.73
2022-12-28T13:39:23.895Z,11.82
2022-12-28T13:41:55.111Z,24.67
2022-12-28T13:44:37.386Z,15.05
2022-12-28T13:47:20.095Z,16.52
2022-12-28T13:49:56.705Z,11.88
2022-12-28T13:52:28.728Z,14.32
2022-12-28T13:55:01.777Z,12.95
2022-12-28T13:57:52.643Z,14.45
2022-12-28T14:02:56.260Z,12.15
2022-12-28T14:05:28.712Z,12.40
2022-12-28T14:07:59.175Z,15.88
2022-12-28T14:10:30.306Z,13.10
2022-12-28T14:12:59.913Z,12.40
2022-12-28T14:15:28.318Z,10.93
2022-12-28T14:17:58.718Z,13.75
2022-12-28T14:20:27.386Z,17.38
2022-12-28T14:22:55.931Z,16.00
2022-12-28T14:25:24.961Z,15.00
2022-12-28T14:28:00.280Z,13.35
2022-12-28T14:30:32.024Z,9.38
2022-12-28T14:33:22.276Z,8.50
2022-12-28T14:35:56.504Z,13.63
2022-12-28T14:38:30.149Z,12.23
2022-12-28T14:41:01.423Z,20.15
2022-12-28T14:43:32.752Z,13.18
2022-12-28T14:46:18.979Z,13.43
2022-12-28T14:48:48.915Z,17.80
2022-12-28T14:51:38.575Z,13.67
2022-12-28T14:54:21.072Z,12.00
2022-12-28T14:56:55.044Z,13.00
2022-12-28T14:59:28.753Z,16.42
2022-12-28T15:01:57.512Z,15.55
2022-12-28T15:04:35.934Z,11.68
2022-12-28T15:07:05.232Z,12.63
2022-12-28T15:09:33.648Z,11.80
2022-12-28T15:12:10.763Z,16.10
2022-12-28T15:14:39.247Z,12.93
2022-12-28T15:17:08.784Z,14.25
2022-12-28T15:19:38.871Z,13.05
2022-12-28T15:22:07.330Z,9.18
2022-12-28T15:24:35.737Z,12.00
2022-12-28T15:27:05.168Z,12.68
2022-12-28T15:32:22.434Z,16.65
2022-12-28T15:34:52.127Z,14.32
2022-12-28T15:37:20.639Z,14.70
2022-12-28T15:39:49.734Z,11.60
2022-12-28T15:42:18.103Z,14.88
2022-12-28T15:44:48.664Z,15.55
2022-12-28T15:49:45.328Z,9.57
2022-12-28T15:52:15.083Z,11.30
2022-12-28T15:54:47.204Z,13.03
2022-12-28T15:57:16.311Z,14.25
2022-12-28T15:59:44.623Z,12.57
2022-12-28T16:02:13.832Z,9.90
2022-12-28T16:04:42.454Z,9.50
2022-12-28T16:07:11.188Z,13.60
2022-12-28T16:09:40.889Z,16.73
2022-12-28T16:12:09.867Z,10.77
2022-12-28T16:14:38.268Z,13.93
2022-12-28T16:17:06.567Z,12.43
2022-12-28T16:19:35.242Z,9.38
2022-12-28T16:22:03.660Z,10.95
2022-12-28T16:24:32.061Z,10.13
2022-12-28T16:27:02.006Z,9.57
2022-12-28T16:29:30.635Z,16.13
2022-12-28T16:32:01.819Z,10.00
2022-12-28T16:34:31.755Z,11.27
2022-12-28T16:37:00.649Z,9.95
2022-12-28T16:39:30.649Z,12.75
2022-12-28T16:42:00.898Z,14.00
2022-12-28T16:44:29.648Z,7.65
2022-12-28T16:46:59.648Z,14.10
2022-12-28T16:49:29.620Z,6.90
2022-12-28T16:51:58.387Z,11.07
2022-12-28T16:54:29.031Z,11.07
2022-12-28T16:59:29.458Z,13.20
2022-12-28T17:01:59.490Z,9.73
2022-12-28T17:04:28.187Z,13.48
2022-12-28T17:06:56.812Z,13.10
2022-12-28T17:09:25.329Z,10.82
2022-12-28T17:11:53.705Z,9.70
2022-12-28T17:14:37.009Z,13.95
2022-12-28T17:17:07.935Z,9.52
2022-12-28T17:19:37.113Z,10.80
2022-12-28T17:22:06.019Z,12.32
2022-12-28T17:24:34.778Z,12.68
2022-12-28T17:27:08.197Z,15.77
2022-12-28T17:29:38.671Z,11.35
2022-12-28T17:32:09.378Z,11.25
2022-12-28T17:34:38.593Z,11.65
2022-12-28T17:37:06.989Z,12.73
2022-12-28T17:39:40.246Z,9.50
2022-12-28T17:42:10.299Z,12.80
2022-12-28T17:44:39.088Z,12.05
2022-12-28T17:47:09.696Z,9.05
2022-12-28T17:52:07.026Z,11.38
2022-12-28T17:54:35.677Z,14.32
2022-12-28T17:57:04.273Z,13.75
2022-12-28T17:59:33.103Z,10.85
2022-12-28T18:02:05.015Z,10.50
2022-12-28T18:04:35.546Z,11.82
2022-12-28T18:07:04.579Z,11.68
2022-12-28T18:09:32.898Z,13.15
2022-12-28T18:12:02.069Z,12.82
2022-12-28T18:14:30.705Z,11.15
2022-12-28T18:16:59.171Z,11.68
2022-12-28T18:19:27.779Z,15.48
2022-12-28T18:21:57.563Z,13.10
2022-12-28T18:24:25.915Z,11.27
2022-12-28T18:26:54.514Z,14.43
2022-12-28T18:29:23.072Z,13.93
2022-12-28T18:31:51.379Z,13.88
2022-12-28T18:34:19.807Z,14.63
2022-12-28T18:36:49.285Z,12.40
2022-12-28T18:39:19.054Z,13.20
2022-12-28T18:41:47.487Z,14.93
2022-12-28T18:44:15.999Z,12.32
2022-12-28T18:46:44.452Z,12.75
2022-12-28T18:49:12.935Z,13.07
2022-12-28T18:51:41.289Z,14.82
2022-12-28T18:54:09.657Z,14.15
2022-12-28T18:56:39.762Z,14.02
2022-12-28T18:59:08.098Z,13.18
2022-12-28T19:04:29.661Z,11.90
2022-12-28T19:06:58.264Z,13.38
2022-12-28T19:09:26.714Z,18.40
2022-12-28T19:11:56.686Z,14.10
2022-12-28T19:14:25.295Z,13.02
2022-12-28T19:16:53.695Z,13.18
2022-12-28T19:19:22.335Z,15.40
2022-12-28T19:21:56.550Z,13.55
2022-12-28T19:24:27.050Z,14.93
2022-12-28T19:26:57.034Z,13.13
2022-12-28T19:29:25.544Z,16.10
2022-12-28T19:31:54.890Z,13.38
2022-12-28T19:34:23.323Z,13.63
2022-12-28T19:36:51.741Z,11.63
2022-12-28T19:39:20.462Z,11.50
2022-12-28T19:41:48.846Z,17.30
2022-12-28T19:44:20.868Z,11.70
2022-12-28T19:46:49.623Z,11.10
2022-12-28T19:49:18.047Z,10.30
2022-12-28T19:51:46.738Z,12.23
2022-12-28T19:54:15.112Z,10.52
2022-12-28T19:56:43.604Z,10.68
2022-12-28T19:59:11.917Z,9.35
2022-12-28T20:01:41.776Z,12.10
2022-12-28T20:04:13.868Z,13.13
2022-12-28T20:06:43.799Z,12.32
2022-12-28T20:09:14.275Z,9.93
2022-12-28T20:11:43.324Z,9.13
2022-12-28T20:14:14.463Z,8.55
2022-12-28T20:16:44.704Z,9.88
2022-12-28T20:19:13.975Z,8.02
2022-12-28T20:21:42.739Z,10.65
2022-12-28T20:24:16.463Z,9.18
2022-12-28T20:26:44.874Z,7.72
2022-12-28T20:29:16.195Z,9.80
2022-12-28T20:31:46.102Z,9.57
2022-12-28T20:34:14.600Z,8.80
2022-12-28T20:36:43.238Z,8.95
2022-12-28T20:39:11.676Z,9.32
2022-12-28T20:41:56.803Z,8.77
2022-12-28T20:44:28.286Z,10.30
2022-12-28T20:46:58.898Z,10.30
2022-12-28T20:49:28.412Z,9.00
2022-12-28T20:51:57.022Z,8.40
2022-12-28T20:54:26.368Z,8.27
2022-12-28T20:56:56.179Z,7.10
2022-12-28T20:59:26.013Z,9.77
2022-12-28T21:01:55.179Z,8.23
2022-12-28T21:04:26.047Z,8.45
2022-12-28T21:09:23.474Z,7.78
2022-12-28T21:11:51.949Z,9.60
2022-12-28T21:14:20.809Z,8.13
2022-12-28T21:16:49.461Z,7.50
2022-12-28T21:19:18.014Z,8.30
2022-12-28T21:21:49.568Z,7.60
2022-12-28T21:24:17.985Z,7.68
2022-12-28T21:26:46.306Z,8.35
2022-12-28T21:29:17.917Z,7.47
2022-12-28T21:31:51.650Z,9.13
2022-12-28T21:34:20.124Z,7.13
2022-12-28T21:36:49.953Z,7.75
2022-12-28T21:39:18.558Z,7.68
2022-12-28T21:41:49.779Z,7.53
2022-12-28T21:44:21.144Z,7.78
2022-12-28T21:46:51.853Z,7.97
2022-12-28T21:51:51.464Z,8.15
2022-12-28T21:54:22.075Z,7.10
2022-12-28T21:56:53.629Z,7.97
2022-12-28T21:59:23.334Z,8.98
2022-12-28T22:02:09.871Z,9.30
2022-12-28T22:05:02.250Z,8.35
2022-12-28T22:07:33.299Z,9.23
2022-12-28T22:10:19.193Z,9.57
2022-12-28T22:12:47.683Z,8.60
2022-12-28T22:15:36.122Z,9.43
2022-12-28T22:18:06.769Z,8.85
2022-12-28T22:20:37.396Z,9.35
2022-12-28T22:23:07.424Z,10.15
2022-12-28T22:25:37.408Z,8.93
2022-12-28T22:28:07.018Z,8.88
2022-12-28T22:30:37.660Z,10.68
2022-12-28T22:33:06.245Z,8.68
2022-12-28T22:35:35.191Z,8.63
2022-12-28T22:38:03.864Z,8.50
2022-12-28T22:40:33.594Z,8.15
2022-12-28T22:43:01.902Z,8.33
2022-12-28T22:45:30.298Z,8.57
2022-12-28T22:47:59.576Z,9.02
2022-12-28T22:50:29.385Z,8.60
2022-12-28T22:52:58.407Z,9.20
2022-12-28T22:55:26.794Z,8.88
2022-12-28T22:57:56.564Z,7.78
2022-12-28T23:00:24.915Z,8.50
2022-12-28T23:02:53.415Z,7.45
2022-12-28T23:05:21.865Z,7.43
2022-12-28T23:07:50.210Z,9.05
2022-12-28T23:10:18.738Z,8.27
2022-12-28T23:12:47.079Z,7.03
2022-12-28T23:15:16.200Z,7.30
2022-12-28T23:17:44.535Z,7.28
2022-12-28T23:20:30.994Z,6.60
2022-12-28T23:23:17.091Z,8.27
2022-12-28T23:26:03.238Z,7.07
2022-12-28T23:28:31.608Z,6.32
2022-12-28T23:31:02.050Z,7.93
2022-12-28T23:33:30.503Z,6.22
2022-12-28T23:36:03.743Z,6.47
2022-12-28T23:38:33.560Z,6.43
2022-12-28T23:41:39.495Z,7.53
2022-12-28T23:44:08.015Z,6.15
2022-12-28T23:46:37.743Z,5.93
2022-12-28T23:49:07.824Z,7.10
2022-12-28T23:51:36.162Z,5.85
2022-12-28T23:54:04.537Z,6.25
2022-12-28T23:56:32.904Z,6.13
2022-12-28T23:59:01.195Z,6.13
